createdAt,value
2022-11-12T00:00:28.501Z,3.43
2022-11-12T00:02:54.995Z,3.90
2022-11-12T00:05:21.495Z,3.90
2022-11-12T00:07:48.003Z,4.33
2022-11-12T00:10:15.315Z,3.93
2022-11-12T00:12:43.174Z,4.40
2022-11-12T00:15:10.440Z,4.40
2022-11-12T00:17:37.492Z,4.27
2022-11-12T00:20:05.321Z,4.60
2022-11-12T00:22:32.011Z,3.53
2022-11-12T00:24:58.627Z,3.57
2022-11-12T00:27:25.284Z,3.57
2022-11-12T00:29:53.111Z,3.37
2022-11-12T00:32:19.635Z,3.43
2022-11-12T00:34:46.183Z,3.87
2022-11-12T00:37:12.690Z,3.53
2022-11-12T00:39:39.187Z,3.00
2022-11-12T00:42:05.820Z,3.17
2022-11-12T00:44:32.326Z,2.67
2022-11-12T00:47:00.263Z,2.80
2022-11-12T00:49:26.749Z,3.13
2022-11-12T00:51:53.391Z,2.80
2022-11-12T00:54:19.875Z,2.63
2022-11-12T00:56:46.674Z,2.80
2022-11-12T00:59:13.411Z,2.77
2022-11-12T01:01:40.223Z,2.87
2022-11-12T01:04:08.650Z,2.83
2022-11-12T01:06:38.784Z,3.40
2022-11-12T01:09:05.327Z,3.30
2022-11-12T01:11:31.876Z,2.63
2022-11-12T01:14:00.777Z,2.80
2022-11-12T01:16:29.604Z,2.80
2022-11-12T01:18:58.306Z,2.87
2022-11-12T01:21:28.171Z,2.67
2022-11-12T01:23:56.818Z,2.73
2022-11-12T01:26:23.895Z,2.77
2022-11-12T01:28:50.421Z,2.77
2022-11-12T01:31:18.365Z,2.50
2022-11-12T01:33:46.356Z,2.60
2022-11-12T01:36:14.207Z,2.70
2022-11-12T01:38:43.857Z,2.37
2022-11-12T01:41:12.973Z,2.47
2022-11-12T01:43:39.623Z,2.40
2022-11-12T01:46:14.334Z,2.40
2022-11-12T01:48:47.377Z,2.30
2022-11-12T01:51:15.279Z,2.30
2022-11-12T01:53:47.180Z,2.47
2022-11-12T01:56:14.747Z,2.30
2022-11-12T01:58:41.423Z,2.30
2022-11-12T02:01:07.988Z,2.13
2022-11-12T02:03:34.523Z,2.47
2022-11-12T02:06:04.687Z,2.50
2022-11-12T02:08:32.747Z,2.37
2022-11-12T02:11:11.246Z,2.47
2022-11-12T02:13:37.808Z,2.30
2022-11-12T02:16:05.282Z,2.20
2022-11-12T02:18:31.794Z,2.57
2022-11-12T02:21:02.719Z,2.43
2022-11-12T02:23:30.669Z,2.73
2022-11-12T02:25:57.168Z,2.67
2022-11-12T02:28:23.988Z,2.87
2022-11-12T02:30:50.738Z,3.40
2022-11-12T02:33:17.247Z,2.63
2022-11-12T02:35:43.752Z,3.00
2022-11-12T02:38:10.837Z,2.73
2022-11-12T02:40:38.750Z,2.47
2022-11-12T02:43:05.299Z,2.63
2022-11-12T02:45:31.877Z,2.57
2022-11-12T02:47:59.133Z,2.77
2022-11-12T02:50:25.615Z,2.67
2022-11-12T02:52:52.148Z,2.63
2022-11-12T02:55:18.653Z,2.80
2022-11-12T02:57:46.517Z,2.27
2022-11-12T03:00:13.834Z,2.50
2022-11-12T03:02:40.357Z,2.40
2022-11-12T03:05:07.330Z,2.30
2022-11-12T03:07:33.833Z,2.40
2022-11-12T03:10:00.345Z,2.80
2022-11-12T03:12:26.840Z,2.47
2022-11-12T03:14:54.722Z,2.83
2022-11-12T03:17:21.191Z,2.53
2022-11-12T03:19:47.682Z,2.20
2022-11-12T03:22:14.164Z,2.80
2022-11-12T03:24:40.671Z,2.43
2022-11-12T03:27:07.180Z,2.73
2022-11-12T03:29:33.678Z,2.87
2022-11-12T03:32:01.524Z,3.10
2022-11-12T03:34:28.033Z,2.77
2022-11-12T03:36:54.538Z,2.77
2022-11-12T03:39:21.061Z,2.90
2022-11-12T03:41:47.557Z,2.60
2022-11-12T03:44:14.027Z,3.03
2022-11-12T03:46:44.201Z,2.67
2022-11-12T03:49:12.435Z,2.90
2022-11-12T03:51:38.938Z,3.70
2022-11-12T03:54:05.742Z,2.87
2022-11-12T03:56:32.213Z,3.13
2022-11-12T03:58:58.687Z,3.27
2022-11-12T04:01:25.228Z,2.97
2022-11-12T04:03:51.722Z,3.67
2022-11-12T04:06:20.317Z,3.37
2022-11-12T04:08:46.987Z,3.13
2022-11-12T04:11:15.887Z,3.37
2022-11-12T04:13:44.016Z,3.17
2022-11-12T04:16:12.498Z,3.47
2022-11-12T04:18:39.156Z,3.00
2022-11-12T04:21:07.768Z,3.60
2022-11-12T04:23:35.604Z,3.40
2022-11-12T04:26:02.540Z,3.13
2022-11-12T04:28:29.260Z,3.53
2022-11-12T04:30:55.846Z,3.50
2022-11-12T04:33:22.361Z,3.60
2022-11-12T04:35:48.849Z,2.77
2022-11-12T04:38:15.327Z,3.10
2022-11-12T04:40:43.183Z,2.80
2022-11-12T04:43:11.352Z,2.70
2022-11-12T04:45:38.340Z,2.47
2022-11-12T04:48:05.089Z,2.63
2022-11-12T04:50:31.674Z,2.40
2022-11-12T04:52:58.165Z,2.60
2022-11-12T04:55:24.818Z,2.60
2022-11-12T04:57:56.147Z,2.40
2022-11-12T05:00:26.930Z,2.30
2022-11-12T05:02:53.448Z,2.30
2022-11-12T05:05:19.940Z,2.17
2022-11-12T05:07:46.463Z,2.50
2022-11-12T05:10:12.966Z,2.57
2022-11-12T05:12:39.681Z,2.67
2022-11-12T05:15:09.349Z,2.40
2022-11-12T05:17:35.884Z,2.40
2022-11-12T05:20:02.416Z,2.33
2022-11-12T05:22:43.171Z,2.30
2022-11-12T05:25:10.761Z,2.30
2022-11-12T05:27:37.289Z,2.20
2022-11-12T05:30:04.596Z,2.57
2022-11-12T05:32:32.445Z,2.23
2022-11-12T05:34:58.929Z,2.23
2022-11-12T05:37:25.418Z,2.23
2022-11-12T05:39:51.899Z,2.60
2022-11-12T05:42:18.384Z,2.63
2022-11-12T05:44:44.880Z,2.63
2022-11-12T05:47:11.329Z,2.30
2022-11-12T05:49:39.289Z,2.40
2022-11-12T05:52:05.783Z,2.67
2022-11-12T05:54:32.289Z,2.37
2022-11-12T05:56:58.819Z,2.40
2022-11-12T05:59:25.328Z,2.30
2022-11-12T06:01:52.005Z,2.67
2022-11-12T06:04:18.575Z,3.00
2022-11-12T06:06:46.443Z,3.17
2022-11-12T06:09:12.938Z,2.80
2022-11-12T06:11:39.485Z,2.33
2022-11-12T06:14:06.349Z,2.63
2022-11-12T06:16:33.118Z,2.63
2022-11-12T06:18:59.660Z,2.57
2022-11-12T06:21:26.303Z,2.27
2022-11-12T06:23:55.478Z,2.50
2022-11-12T06:26:22.902Z,2.53
2022-11-12T06:28:50.008Z,2.40
2022-11-12T06:31:18.039Z,2.30
2022-11-12T06:33:45.243Z,2.60
2022-11-12T06:36:13.782Z,2.57
2022-11-12T06:38:41.332Z,2.50
2022-11-12T06:41:11.630Z,2.50
2022-11-12T06:43:38.452Z,2.47
2022-11-12T06:46:07.477Z,2.57
2022-11-12T06:48:34.054Z,2.40
2022-11-12T06:51:07.198Z,2.53
2022-11-12T06:53:33.747Z,3.00
2022-11-12T06:56:05.280Z,2.90
2022-11-12T06:58:33.362Z,2.90
2022-11-12T07:01:11.441Z,2.80
2022-11-12T07:03:39.645Z,2.70
2022-11-12T07:06:08.641Z,3.20
2022-11-12T07:08:35.527Z,2.80
2022-11-12T07:11:02.302Z,3.33
2022-11-12T07:13:29.878Z,3.40
2022-11-12T07:15:58.458Z,3.30
2022-11-12T07:18:25.297Z,3.10
2022-11-12T07:20:52.109Z,3.13
2022-11-12T07:23:18.605Z,3.10
2022-11-12T07:25:45.105Z,2.63
2022-11-12T07:28:11.591Z,3.10
2022-11-12T07:30:38.087Z,3.00
2022-11-12T07:33:05.945Z,3.07
2022-11-12T07:35:32.454Z,3.30
2022-11-12T07:37:59.787Z,3.00
2022-11-12T07:40:26.404Z,3.03
2022-11-12T07:42:52.896Z,3.43
2022-11-12T07:45:19.387Z,3.33
2022-11-12T07:47:45.869Z,3.50
2022-11-12T07:50:13.988Z,3.17
2022-11-12T07:52:40.504Z,3.13
2022-11-12T07:55:07.782Z,3.70
2022-11-12T07:57:34.271Z,3.10
2022-11-12T08:00:00.790Z,3.40
2022-11-12T08:02:27.272Z,3.03
2022-11-12T08:04:53.773Z,3.70
2022-11-12T08:07:21.743Z,4.77
2022-11-12T08:09:48.374Z,4.53
2022-11-12T08:12:14.915Z,4.87
2022-11-12T08:14:41.411Z,3.90
2022-11-12T08:17:07.957Z,3.70
2022-11-12T08:19:34.450Z,3.60
2022-11-12T08:22:00.962Z,3.27
2022-11-12T08:24:28.814Z,3.90
2022-11-12T08:26:55.346Z,3.90
2022-11-12T08:29:22.190Z,3.60
2022-11-12T08:31:48.745Z,3.80
2022-11-12T08:34:21.407Z,3.50
2022-11-12T08:36:49.150Z,3.10
2022-11-12T08:39:15.671Z,4.17
2022-11-12T08:41:43.562Z,3.83
2022-11-12T08:44:10.118Z,4.30
2022-11-12T08:46:36.616Z,6.37
2022-11-12T08:49:03.365Z,4.77
2022-11-12T08:51:29.934Z,4.97
2022-11-12T08:53:56.422Z,4.70
2022-11-12T08:56:22.924Z,4.47
2022-11-12T08:58:50.784Z,3.47
2022-11-12T09:01:17.339Z,4.20
2022-11-12T09:03:43.937Z,3.77
2022-11-12T09:06:10.590Z,4.37
2022-11-12T09:08:37.586Z,4.10
2022-11-12T09:11:04.600Z,3.67
2022-11-12T09:13:31.371Z,4.33
2022-11-12T09:16:04.643Z,4.33
2022-11-12T09:18:31.650Z,4.87
2022-11-12T09:21:02.702Z,4.80
2022-11-12T09:23:29.509Z,4.47
2022-11-12T09:25:56.665Z,5.40
2022-11-12T09:28:23.653Z,5.40
2022-11-12T09:30:51.507Z,4.27
2022-11-12T09:33:21.577Z,4.87
2022-11-12T09:35:48.643Z,4.57
2022-11-12T09:38:15.548Z,4.80
2022-11-12T09:40:55.039Z,4.73
2022-11-12T09:43:25.922Z,5.60
2022-11-12T09:46:21.448Z,6.27
2022-11-12T09:48:51.314Z,4.67
2022-11-12T09:51:25.396Z,5.20
2022-11-12T09:53:55.513Z,4.67
2022-11-12T09:56:23.316Z,5.43
2022-11-12T09:58:49.877Z,5.50
2022-11-12T10:01:22.012Z,5.37
2022-11-12T10:03:56.411Z,5.50
2022-11-12T10:06:27.712Z,5.60
2022-11-12T10:09:00.375Z,5.47
2022-11-12T10:11:45.063Z,5.40
2022-11-12T10:14:19.214Z,5.67
2022-11-12T10:17:01.802Z,5.83
2022-11-12T10:19:58.777Z,8.00
2022-11-12T10:22:36.116Z,6.30
2022-11-12T10:25:13.948Z,4.73
2022-11-12T10:27:42.353Z,4.87
2022-11-12T10:30:15.542Z,4.87
2022-11-12T10:32:43.161Z,4.27
2022-11-12T10:35:12.445Z,4.73
2022-11-12T10:37:45.237Z,4.77
2022-11-12T10:40:28.408Z,5.03
2022-11-12T10:43:04.294Z,4.37
2022-11-12T10:45:31.443Z,5.60
2022-11-12T10:47:58.944Z,5.30
2022-11-12T10:50:30.066Z,4.60
2022-11-12T10:52:59.850Z,5.13
2022-11-12T10:55:28.511Z,5.10
2022-11-12T10:58:15.044Z,5.37
2022-11-12T11:00:54.062Z,5.27
2022-11-12T11:03:22.495Z,5.63
2022-11-12T11:05:53.522Z,5.90
2022-11-12T11:08:36.095Z,5.87
2022-11-12T11:11:25.371Z,5.70
2022-11-12T11:13:55.794Z,5.17
2022-11-12T11:16:24.967Z,5.40
2022-11-12T11:18:54.897Z,5.30
2022-11-12T11:22:01.069Z,6.17
2022-11-12T11:24:35.690Z,6.53
2022-11-12T11:27:08.154Z,5.57
2022-11-12T11:29:54.730Z,5.60
2022-11-12T11:32:43.000Z,5.90
2022-11-12T11:35:19.629Z,5.57
2022-11-12T11:38:05.960Z,5.87
2022-11-12T11:40:38.006Z,5.97
2022-11-12T11:43:37.487Z,5.60
2022-11-12T11:46:16.345Z,5.37
2022-11-12T11:48:58.788Z,5.53
2022-11-12T11:51:40.141Z,5.00
2022-11-12T11:54:23.713Z,5.50
2022-11-12T11:56:56.068Z,5.10
2022-11-12T11:59:37.366Z,5.30
2022-11-12T12:02:42.559Z,5.10
2022-11-12T12:05:26.759Z,4.70
2022-11-12T12:08:02.235Z,5.13
2022-11-12T12:11:09.805Z,5.47
2022-11-12T12:13:37.711Z,4.80
2022-11-12T12:16:25.294Z,5.37
2022-11-12T12:18:56.521Z,6.03
2022-11-12T12:21:24.280Z,5.70
2022-11-12T12:23:53.544Z,5.20
2022-11-12T12:26:25.560Z,5.47
2022-11-12T12:28:55.255Z,5.80
2022-11-12T12:31:25.910Z,5.03
2022-11-12T12:33:56.620Z,4.63
2022-11-12T12:36:26.900Z,5.20
2022-11-12T12:39:04.169Z,5.20
2022-11-12T12:41:37.559Z,5.83
2022-11-12T12:44:05.858Z,5.80
2022-11-12T12:46:39.020Z,5.87
2022-11-12T12:49:07.387Z,5.17
2022-11-12T12:51:34.552Z,5.23
2022-11-12T12:54:01.072Z,5.87
2022-11-12T12:56:46.865Z,4.67
2022-11-12T12:59:21.632Z,5.73
2022-11-12T13:01:56.124Z,5.40
2022-11-12T13:04:51.525Z,6.30
2022-11-12T13:07:18.622Z,5.73
2022-11-12T13:09:45.221Z,5.47
2022-11-12T13:12:16.677Z,6.10
2022-11-12T13:15:08.495Z,5.20
2022-11-12T13:17:47.278Z,5.97
2022-11-12T13:20:39.074Z,6.07
2022-11-12T13:23:10.784Z,5.63
2022-11-12T13:25:38.482Z,6.07
2022-11-12T13:28:10.965Z,6.00
2022-11-12T13:30:57.126Z,6.13
2022-11-12T13:33:29.724Z,5.70
2022-11-12T13:36:24.914Z,5.43
2022-11-12T13:38:51.656Z,6.00
2022-11-12T13:41:22.214Z,7.20
2022-11-12T13:43:50.185Z,6.70
2022-11-12T13:46:29.036Z,7.00
2022-11-12T13:49:00.045Z,7.20
2022-11-12T13:51:37.264Z,6.63
2022-11-12T13:54:29.141Z,6.30
2022-11-12T13:56:56.106Z,5.60
2022-11-12T13:59:25.501Z,5.77
2022-11-12T14:01:52.343Z,5.83
2022-11-12T14:04:21.314Z,5.17
2022-11-12T14:06:50.466Z,6.00
2022-11-12T14:09:41.134Z,5.47
2022-11-12T14:12:29.526Z,5.20
2022-11-12T14:15:12.656Z,6.37
2022-11-12T14:17:47.225Z,6.03
2022-11-12T14:20:25.158Z,5.97
2022-11-12T14:22:52.977Z,5.27
2022-11-12T14:25:21.765Z,5.80
2022-11-12T14:27:49.395Z,4.93
2022-11-12T14:30:20.645Z,5.50
2022-11-12T14:32:50.617Z,4.80
2022-11-12T14:35:33.016Z,5.23
2022-11-12T14:38:05.494Z,6.23
2022-11-12T14:40:33.747Z,5.57
2022-11-12T14:43:00.276Z,5.40
2022-11-12T14:45:32.614Z,5.00
2022-11-12T14:48:01.864Z,5.20
2022-11-12T14:50:35.912Z,4.73
2022-11-12T14:53:11.326Z,4.57
2022-11-12T14:55:41.402Z,4.10
2022-11-12T14:58:12.789Z,5.47
2022-11-12T15:00:43.660Z,4.83
2022-11-12T15:03:17.410Z,4.40
2022-11-12T15:05:58.370Z,4.80
2022-11-12T15:08:30.203Z,5.33
2022-11-12T15:10:57.950Z,4.57
2022-11-12T15:13:27.217Z,4.73
2022-11-12T15:16:01.595Z,5.00
2022-11-12T15:18:29.924Z,4.47
2022-11-12T15:21:09.521Z,4.53
2022-11-12T15:23:36.209Z,4.73
2022-11-12T15:26:03.239Z,5.70
2022-11-12T15:28:29.848Z,4.53
2022-11-12T15:31:02.244Z,5.80
2022-11-12T15:33:29.639Z,6.27
2022-11-12T15:35:57.884Z,6.50
2022-11-12T15:38:27.201Z,6.40
2022-11-12T15:40:57.507Z,5.90
2022-11-12T15:43:28.146Z,5.07
2022-11-12T15:45:55.890Z,5.63
2022-11-12T15:48:23.823Z,6.33
2022-11-12T15:50:50.419Z,4.93
2022-11-12T15:53:17.095Z,5.10
2022-11-12T15:55:45.211Z,5.57
2022-11-12T15:58:16.975Z,5.37
2022-11-12T16:00:43.648Z,5.10
2022-11-12T16:03:15.032Z,4.73
2022-11-12T16:05:43.349Z,4.80
2022-11-12T16:08:10.130Z,4.73
2022-11-12T16:10:37.859Z,5.03
2022-11-12T16:13:06.330Z,5.20
2022-11-12T16:15:33.383Z,5.03
2022-11-12T16:17:59.909Z,5.77
2022-11-12T16:20:28.942Z,5.47
2022-11-12T16:22:57.179Z,5.30
2022-11-12T16:25:26.024Z,5.30
2022-11-12T16:27:55.890Z,5.47
2022-11-12T16:30:24.796Z,5.83
2022-11-12T16:32:51.392Z,5.30
2022-11-12T16:35:18.286Z,6.37
2022-11-12T16:37:45.881Z,7.50
2022-11-12T16:40:17.055Z,5.60
2022-11-12T16:42:43.955Z,4.90
2022-11-12T16:45:10.633Z,5.17
2022-11-12T16:47:43.698Z,5.27
2022-11-12T16:50:10.845Z,6.00
2022-11-12T16:52:37.359Z,5.87
2022-11-12T16:55:05.087Z,6.13
2022-11-12T16:57:33.121Z,6.23
2022-11-12T16:59:59.896Z,6.17
2022-11-12T17:02:26.559Z,5.67
2022-11-12T17:04:53.081Z,6.13
2022-11-12T17:07:19.708Z,5.57
2022-11-12T17:09:46.252Z,5.17
2022-11-12T17:12:12.799Z,5.00
2022-11-12T17:14:40.700Z,5.70
2022-11-12T17:17:07.223Z,6.27
2022-11-12T17:19:33.745Z,6.77
2022-11-12T17:22:00.267Z,7.07
2022-11-12T17:24:27.013Z,7.33
2022-11-12T17:26:53.541Z,6.70
2022-11-12T17:29:20.077Z,6.37
2022-11-12T17:31:49.459Z,5.70
2022-11-12T17:34:16.092Z,6.67
2022-11-12T17:36:43.880Z,6.33
2022-11-12T17:39:11.654Z,5.63
2022-11-12T17:41:38.377Z,5.67
2022-11-12T17:44:05.767Z,5.20
2022-11-12T17:46:32.358Z,6.53
2022-11-12T17:49:00.290Z,7.07
2022-11-12T17:51:27.888Z,7.03
2022-11-12T17:53:54.431Z,6.40
2022-11-12T17:56:22.854Z,6.43
2022-11-12T17:58:49.462Z,6.30
2022-11-12T18:01:19.396Z,6.63
2022-11-12T18:03:47.299Z,6.00
2022-11-12T18:06:16.362Z,6.73
2022-11-12T18:08:44.592Z,7.37
2022-11-12T18:11:13.719Z,6.70
2022-11-12T18:13:40.765Z,8.23
2022-11-12T18:16:14.883Z,8.40
2022-11-12T18:18:41.594Z,6.97
2022-11-12T18:21:08.141Z,7.07
2022-11-12T18:23:37.403Z,7.47
2022-11-12T18:26:04.143Z,6.83
2022-11-12T18:28:30.774Z,7.17
2022-11-12T18:30:59.482Z,6.03
2022-11-12T18:33:26.447Z,6.10
2022-11-12T18:36:00.352Z,5.60
2022-11-12T18:38:26.884Z,5.20
2022-11-12T18:41:01.738Z,5.37
2022-11-12T18:43:28.937Z,6.27
2022-11-12T18:45:56.220Z,5.97
2022-11-12T18:48:22.729Z,5.67
2022-11-12T18:50:49.280Z,5.73
2022-11-12T18:53:15.833Z,6.00
2022-11-12T18:55:42.635Z,5.30
2022-11-12T18:58:10.530Z,5.80
2022-11-12T19:00:37.077Z,5.30
2022-11-12T19:03:03.842Z,5.67
2022-11-12T19:05:30.449Z,5.13
2022-11-12T19:07:57.022Z,5.33
2022-11-12T19:10:23.644Z,5.20
2022-11-12T19:12:50.178Z,4.87
2022-11-12T19:15:20.619Z,4.60
2022-11-12T19:17:50.709Z,4.57
2022-11-12T19:20:17.424Z,4.80
2022-11-12T19:22:43.961Z,4.77
2022-11-12T19:25:10.491Z,4.53
2022-11-12T19:27:37.028Z,5.10
2022-11-12T19:30:04.278Z,4.67
2022-11-12T19:32:32.215Z,4.93
2022-11-12T19:34:58.744Z,4.83
2022-11-12T19:37:33.522Z,5.00
2022-11-12T19:40:00.578Z,5.27
2022-11-12T19:42:27.115Z,4.93
2022-11-12T19:44:53.668Z,5.93
2022-11-12T19:47:20.231Z,6.37
2022-11-12T19:49:48.158Z,5.40
2022-11-12T19:52:14.685Z,5.10
2022-11-12T19:54:41.205Z,4.53
2022-11-12T19:57:07.703Z,5.43
2022-11-12T19:59:34.340Z,5.90
2022-11-12T20:02:00.852Z,4.97
2022-11-12T20:04:27.405Z,5.20
2022-11-12T20:06:55.383Z,5.23
2022-11-12T20:09:21.959Z,5.03
2022-11-12T20:11:48.540Z,5.40
2022-11-12T20:14:15.053Z,5.37
2022-11-12T20:16:41.589Z,5.37
2022-11-12T20:19:08.140Z,5.57
2022-11-12T20:21:34.644Z,5.53
2022-11-12T20:24:02.561Z,5.83
2022-11-12T20:26:29.127Z,5.80
2022-11-12T20:28:55.647Z,5.20
2022-11-12T20:31:22.188Z,5.90
2022-11-12T20:33:49.889Z,5.80
2022-11-12T20:36:19.497Z,5.93
2022-11-12T20:38:46.587Z,6.13
2022-11-12T20:41:16.257Z,6.10
2022-11-12T20:43:43.117Z,5.90
2022-11-12T20:46:10.231Z,5.93
2022-11-12T20:48:40.118Z,5.80
2022-11-12T20:51:27.107Z,5.37
2022-11-12T20:53:59.212Z,5.57
2022-11-12T20:56:29.548Z,5.33
2022-11-12T20:58:56.615Z,6.07
2022-11-12T21:01:24.818Z,5.93
2022-11-12T21:03:51.487Z,5.77
2022-11-12T21:06:20.356Z,5.70
2022-11-12T21:08:47.201Z,5.47
2022-11-12T21:11:16.623Z,6.30
2022-11-12T21:13:44.745Z,5.83
2022-11-12T21:16:13.054Z,6.20
2022-11-12T21:18:40.185Z,6.57
2022-11-12T21:21:08.828Z,6.23
2022-11-12T21:23:38.948Z,5.93
2022-11-12T21:26:07.412Z,6.10
2022-11-12T21:28:35.102Z,6.40
2022-11-12T21:31:04.917Z,5.80
2022-11-12T21:33:31.454Z,5.93
2022-11-12T21:35:57.960Z,6.23
2022-11-12T21:38:24.746Z,5.83
2022-11-12T21:40:51.611Z,5.63
2022-11-12T21:43:18.182Z,6.10
2022-11-12T21:45:45.836Z,6.03
2022-11-12T21:48:13.839Z,5.53
2022-11-12T21:50:40.376Z,5.13
2022-11-12T21:53:06.931Z,5.80
2022-11-12T21:55:33.497Z,5.53
2022-11-12T21:58:00.044Z,6.00
2022-11-12T22:00:41.482Z,6.23
2022-11-12T22:03:09.044Z,5.60
2022-11-12T22:05:37.443Z,6.07
2022-11-12T22:08:04.294Z,6.87
2022-11-12T22:10:30.921Z,5.80
2022-11-12T22:13:26.464Z,6.10
2022-11-12T22:15:44.082Z,6.27
2022-11-12T22:18:10.792Z,6.20
2022-11-12T22:20:38.729Z,6.70
2022-11-12T22:23:05.297Z,7.53
2022-11-12T22:25:31.857Z,9.57
2022-11-12T22:27:58.362Z,7.27
2022-11-12T22:30:24.892Z,6.83
2022-11-12T22:32:51.462Z,7.13
2022-11-12T22:35:18.009Z,7.40
2022-11-12T22:37:45.880Z,7.87
2022-11-12T22:40:13.686Z,8.40
2022-11-12T22:42:40.379Z,8.03
2022-11-12T22:45:08.674Z,7.63
2022-11-12T22:47:35.185Z,7.60
2022-11-12T22:50:01.698Z,8.03
2022-11-12T22:52:28.230Z,7.40
2022-11-12T22:54:56.142Z,7.10
2022-11-12T22:57:22.775Z,7.37
2022-11-12T22:59:49.281Z,7.00
2022-11-12T23:02:15.840Z,8.20
2022-11-12T23:04:42.368Z,7.23
2022-11-12T23:07:08.973Z,6.63
2022-11-12T23:09:35.517Z,7.07
2022-11-12T23:12:04.132Z,7.37
2022-11-12T23:14:30.685Z,6.37
2022-11-12T23:16:58.394Z,6.90
2022-11-12T23:19:24.952Z,6.27
2022-11-12T23:21:51.533Z,6.43
2022-11-12T23:24:18.161Z,6.93
2022-11-12T23:26:44.708Z,7.10
2022-11-12T23:29:12.808Z,6.33
2022-11-12T23:31:39.353Z,6.30
2022-11-12T23:34:05.910Z,7.03
2022-11-12T23:36:32.459Z,6.97
2022-11-12T23:38:59.172Z,6.30
2022-11-12T23:41:26.795Z,6.83
2022-11-12T23:43:54.854Z,7.23
2022-11-12T23:46:23.249Z,6.50
2022-11-12T23:48:49.961Z,5.30
2022-11-12T23:51:17.984Z,5.03
2022-11-12T23:53:45.443Z,4.77
2022-11-12T23:56:13.989Z,4.23
2022-11-12T23:58:41.252Z,4.37
